createdAt,value
2024-04-08T11:31:27.303Z,21.53
2024-04-08T11:33:54.396Z,22.38
2024-04-08T11:36:24.225Z,22.53
2024-04-08T11:38:51.713Z,22.10
2024-04-08T11:41:21.747Z,22.67
2024-04-08T11:43:49.438Z,22.13
2024-04-08T11:46:20.252Z,21.55
2024-04-08T11:48:50.180Z,21.69
2024-04-08T11:51:20.156Z,22.02
2024-04-08T11:53:47.350Z,21.78
2024-04-08T11:56:17.876Z,22.75
2024-04-08T11:58:45.117Z,22.43
2024-04-08T12:01:15.131Z,22.61
2024-04-08T12:03:42.472Z,22.08
2024-04-08T12:06:16.597Z,21.29
2024-04-08T12:08:43.939Z,21.50
2024-04-08T12:11:14.969Z,21.30
2024-04-08T12:13:44.148Z,22.23
2024-04-08T12:16:14.404Z,21.51
2024-04-08T12:18:41.832Z,22.72
2024-04-08T12:21:14.592Z,22.28
2024-04-08T12:23:41.955Z,22.31
2024-04-08T12:26:12.825Z,21.89
2024-04-08T12:28:39.934Z,22.34
2024-04-08T12:31:09.760Z,22.44
2024-04-08T12:33:37.128Z,22.43
2024-04-08T12:36:07.488Z,23.39
2024-04-08T12:38:37.375Z,22.98
2024-04-08T12:41:07.737Z,22.70
2024-04-08T12:43:46.721Z,22.33
2024-04-08T12:46:21.890Z,21.60
2024-04-08T12:48:49.084Z,21.46
2024-04-08T12:51:19.100Z,22.69
2024-04-08T12:53:48.913Z,21.95
2024-04-08T12:56:18.759Z,22.56
2024-04-08T12:58:45.854Z,22.59
2024-04-08T13:01:16.282Z,22.43
2024-04-08T13:03:43.591Z,22.23
2024-04-08T13:06:13.364Z,22.49
2024-04-08T13:08:40.425Z,22.50
2024-04-08T13:11:12.847Z,22.69
2024-04-08T13:13:42.307Z,22.32
2024-04-08T13:16:13.795Z,23.05
2024-04-08T13:18:43.103Z,23.81
2024-04-08T13:21:13.140Z,23.30
2024-04-08T13:23:40.731Z,22.73
2024-04-08T13:26:14.349Z,22.54
2024-04-08T13:28:41.444Z,22.18
2024-04-08T13:31:11.271Z,21.79
2024-04-08T13:33:38.547Z,22.29
2024-04-08T13:36:11.387Z,22.18
2024-04-08T13:38:38.858Z,22.12
2024-04-08T13:41:09.961Z,22.58
2024-04-08T13:43:42.923Z,23.05
2024-04-08T13:46:14.261Z,22.69
2024-04-08T13:48:41.545Z,23.11
2024-04-08T13:51:11.406Z,22.71
2024-04-08T13:53:38.598Z,22.05
2024-04-08T13:56:09.303Z,22.32
2024-04-08T13:58:36.440Z,22.19
2024-04-08T14:01:08.863Z,22.64
2024-04-08T14:03:36.512Z,22.96
2024-04-08T14:06:06.426Z,22.60
2024-04-08T14:08:33.616Z,22.78
2024-04-08T14:11:04.464Z,22.67
2024-04-08T14:13:31.872Z,22.45
2024-04-08T14:16:01.734Z,22.62
2024-04-08T14:18:31.970Z,22.59
2024-04-08T14:21:02.018Z,22.48
2024-04-08T14:23:29.228Z,22.58
2024-04-08T14:25:58.984Z,22.59
2024-04-08T14:28:26.084Z,22.74
2024-04-08T14:30:55.850Z,22.95
2024-04-08T14:33:23.265Z,23.10
2024-04-08T14:35:55.942Z,23.51
2024-04-08T14:38:46.604Z,22.92
2024-04-08T14:41:12.866Z,22.25
2024-04-08T14:43:47.062Z,22.25
2024-04-08T14:46:25.085Z,23.12
2024-04-08T14:48:52.365Z,23.16
2024-04-08T14:51:33.522Z,23.11
2024-04-08T14:54:06.360Z,23.54
2024-04-08T14:56:36.560Z,23.20
2024-04-08T14:59:04.029Z,23.75
2024-04-08T15:01:34.162Z,23.23
2024-04-08T15:04:02.147Z,22.63
2024-04-08T15:06:34.620Z,22.49
2024-04-08T15:09:01.809Z,22.18
2024-04-08T15:11:35.096Z,22.37
2024-04-08T15:14:02.315Z,23.26
2024-04-08T15:16:32.635Z,23.36
2024-04-08T15:18:59.971Z,23.23
2024-04-08T15:21:29.930Z,23.48
2024-04-08T15:24:00.049Z,23.37
2024-04-08T15:26:30.373Z,23.36
2024-04-08T15:28:57.458Z,22.51
2024-04-08T15:31:27.213Z,22.41
2024-04-08T15:33:54.522Z,22.05
2024-04-08T15:36:24.445Z,22.31
2024-04-08T15:38:51.754Z,22.11
2024-04-08T15:41:24.424Z,22.29
2024-04-08T15:43:51.556Z,22.45
2024-04-08T15:46:21.269Z,22.97
2024-04-08T15:48:48.559Z,22.57
2024-04-08T15:51:19.361Z,22.45
2024-04-08T15:53:46.782Z,22.05
2024-04-08T15:56:16.663Z,22.03
2024-04-08T15:58:46.496Z,21.82
2024-04-08T16:01:16.323Z,21.77
2024-04-08T16:03:43.809Z,21.80
2024-04-08T16:06:15.600Z,21.79
2024-04-08T16:08:44.519Z,21.91
2024-04-08T16:11:21.253Z,21.89
2024-04-08T16:13:51.172Z,21.46
2024-04-08T16:16:21.156Z,22.00
2024-04-08T16:18:48.445Z,21.61
2024-04-08T16:21:23.888Z,21.55
2024-04-08T16:23:55.445Z,21.10
2024-04-08T16:26:27.122Z,21.30
2024-04-08T16:29:01.198Z,21.13
2024-04-08T16:31:34.437Z,21.51
2024-04-08T16:34:02.290Z,20.93
2024-04-08T16:36:32.685Z,20.81
2024-04-08T16:39:00.202Z,20.80
2024-04-08T16:41:30.325Z,21.15
2024-04-08T16:44:04.740Z,21.07
2024-04-08T16:46:34.564Z,20.85
2024-04-08T16:49:02.053Z,20.71
2024-04-08T16:51:32.128Z,20.49
2024-04-08T16:53:59.357Z,20.06
2024-04-08T16:56:31.918Z,19.99
2024-04-08T16:59:05.669Z,20.30
2024-04-08T17:01:32.826Z,19.60
2024-04-08T17:04:05.379Z,19.96
2024-04-08T17:06:37.541Z,19.75
2024-04-08T17:09:07.539Z,19.92
2024-04-08T17:11:34.667Z,19.87
2024-04-08T17:14:07.061Z,19.44
2024-04-08T17:16:34.919Z,19.28
2024-04-08T17:19:05.699Z,19.19
2024-04-08T17:21:34.146Z,18.69
2024-04-08T17:24:05.080Z,18.76
2024-04-08T17:26:32.313Z,18.38
2024-04-08T17:29:02.126Z,18.54
2024-04-08T17:31:32.089Z,18.22
2024-04-08T17:34:03.951Z,18.37
2024-04-08T17:36:31.545Z,18.30
2024-04-08T17:39:03.185Z,18.39
2024-04-08T17:41:30.337Z,18.30
2024-04-08T17:44:01.821Z,18.17
2024-04-08T17:46:33.292Z,18.10
2024-04-08T17:49:05.602Z,17.97
2024-04-08T17:51:33.073Z,18.24
2024-04-08T17:54:03.192Z,18.15
2024-04-08T17:56:32.654Z,18.45
2024-04-08T17:59:03.517Z,18.36
2024-04-08T18:01:33.320Z,18.00
2024-04-08T18:04:03.679Z,18.08
2024-04-08T18:06:30.949Z,18.13
2024-04-08T18:09:01.049Z,17.97
2024-04-08T18:11:28.353Z,17.97
2024-04-08T18:13:58.533Z,17.79
2024-04-08T18:16:26.296Z,17.74
2024-04-08T18:18:59.101Z,17.48
2024-04-08T18:21:26.281Z,17.29
2024-04-08T18:23:56.136Z,17.11
2024-04-08T18:26:24.709Z,17.13
2024-04-08T18:28:57.080Z,17.01
2024-04-08T18:31:24.535Z,16.98
2024-04-08T18:33:54.823Z,16.92
2024-04-08T18:36:26.053Z,16.73
2024-04-08T18:38:55.994Z,16.72
2024-04-08T18:41:23.067Z,16.67
2024-04-08T18:43:53.289Z,16.38
2024-04-08T18:46:21.772Z,16.64
2024-04-08T18:48:51.834Z,16.37
2024-04-08T18:51:19.324Z,16.35
2024-04-08T18:53:54.265Z,16.62
2024-04-08T18:56:23.700Z,16.21
2024-04-08T18:58:56.663Z,16.05
2024-04-08T19:01:25.573Z,15.94
2024-04-08T19:03:56.145Z,15.35
2024-04-08T19:06:23.780Z,15.81
2024-04-08T19:08:56.784Z,15.78
2024-04-08T19:11:32.102Z,15.57
2024-04-08T19:14:07.114Z,15.58
2024-04-08T19:16:34.206Z,15.63
2024-04-08T19:19:04.769Z,15.46
2024-04-08T19:21:32.262Z,15.32
2024-04-08T19:24:05.143Z,15.33
2024-04-08T19:26:33.733Z,15.32
2024-04-08T19:29:03.458Z,14.67
2024-04-08T19:31:30.654Z,15.06
2024-04-08T19:34:00.609Z,14.68
2024-04-08T19:36:29.454Z,14.62
2024-04-08T19:38:59.371Z,14.64
2024-04-08T19:41:30.737Z,14.96
2024-04-08T19:44:01.249Z,14.53
2024-04-08T19:46:29.012Z,14.75
2024-04-08T19:48:59.348Z,14.45
2024-04-08T19:51:27.081Z,14.62
2024-04-08T19:53:57.265Z,14.53
2024-04-08T19:56:26.351Z,14.53
2024-04-08T19:58:59.279Z,14.88
2024-04-08T20:01:26.504Z,14.67
2024-04-08T20:03:57.110Z,14.58
2024-04-08T20:06:25.662Z,14.52
2024-04-08T20:08:55.417Z,14.59
2024-04-08T20:11:22.565Z,14.44
2024-04-08T20:13:52.354Z,14.68
2024-04-08T20:16:22.734Z,15.26
2024-04-08T20:18:53.554Z,14.59
2024-04-08T20:21:22.043Z,14.33
2024-04-08T20:23:51.844Z,15.26
2024-04-08T20:26:19.555Z,15.18
2024-04-08T20:28:49.395Z,14.91
2024-04-08T20:31:16.494Z,14.89
2024-04-08T20:33:50.556Z,14.95
2024-04-08T20:36:17.995Z,14.63
2024-04-08T20:38:48.225Z,14.76
2024-04-08T20:41:15.366Z,14.82
2024-04-08T20:43:45.755Z,14.64
2024-04-08T20:46:12.952Z,15.02
2024-04-08T20:48:43.591Z,15.28
2024-04-08T20:51:13.555Z,15.33
2024-04-08T20:53:43.293Z,14.62
2024-04-08T20:56:11.230Z,15.18
2024-04-08T20:58:40.982Z,15.00
2024-04-08T21:01:09.616Z,14.59
2024-04-08T21:03:41.100Z,14.87
2024-04-08T21:06:09.562Z,14.74
2024-04-08T21:08:43.764Z,14.97
2024-04-08T21:11:15.080Z,14.83
2024-04-08T21:13:42.454Z,14.59
2024-04-08T21:16:12.327Z,14.09
2024-04-08T21:18:39.606Z,14.19
2024-04-08T21:21:11.693Z,14.10
2024-04-08T21:23:42.234Z,15.16
2024-04-08T21:26:14.626Z,15.15
2024-04-08T21:28:44.112Z,13.84
2024-04-08T21:31:14.771Z,14.73
2024-04-08T21:33:44.043Z,14.53
2024-04-08T21:36:13.837Z,13.98
2024-04-08T21:38:43.654Z,13.75
2024-04-08T21:41:14.496Z,13.60
2024-04-08T21:43:43.870Z,14.27
2024-04-08T21:46:17.703Z,13.90
2024-04-08T21:48:45.020Z,13.67
2024-04-08T21:51:19.611Z,14.08
2024-04-08T21:53:49.405Z,14.00
2024-04-08T21:56:19.110Z,13.85
2024-04-08T21:58:47.516Z,14.11
2024-04-08T22:01:18.366Z,14.20
2024-04-08T22:03:47.056Z,13.86
2024-04-08T22:06:17.307Z,13.65
2024-04-08T22:08:46.530Z,13.92
2024-04-08T22:11:19.886Z,13.10
2024-04-08T22:13:47.525Z,13.46
2024-04-08T22:16:17.455Z,13.40
2024-04-08T22:18:44.619Z,13.41
2024-04-08T22:21:14.379Z,13.18
2024-04-08T22:23:43.301Z,13.41
2024-04-08T22:26:14.353Z,13.24
2024-04-08T22:28:44.258Z,13.75
2024-04-08T22:31:13.965Z,13.60
2024-04-08T22:33:41.260Z,12.80
2024-04-08T22:36:11.896Z,12.73
2024-04-08T22:38:39.113Z,12.87
2024-04-08T22:41:15.908Z,12.50
2024-04-08T22:43:50.511Z,13.37
2024-04-08T22:46:21.053Z,13.53
2024-04-08T22:48:48.229Z,13.59
2024-04-08T22:51:18.136Z,13.46
2024-04-08T22:53:45.294Z,12.93
2024-04-08T22:56:15.134Z,13.11
2024-04-08T22:58:42.320Z,13.09
2024-04-08T23:01:15.720Z,13.13
2024-04-08T23:03:43.503Z,12.99
2024-04-08T23:06:13.490Z,13.05
2024-04-08T23:08:40.606Z,12.97
2024-04-08T23:11:10.777Z,13.05
2024-04-08T23:13:37.916Z,13.03
2024-04-08T23:16:08.049Z,13.35
2024-04-08T23:18:38.339Z,12.97
2024-04-08T23:21:08.471Z,12.88
2024-04-08T23:23:35.677Z,12.92
2024-04-08T23:26:06.137Z,12.90
2024-04-08T23:28:33.595Z,12.55
2024-04-08T23:31:03.370Z,12.36
2024-04-08T23:33:31.023Z,12.37
2024-04-08T23:36:04.138Z,12.45
2024-04-08T23:38:32.611Z,12.50
2024-04-08T23:41:02.998Z,12.66
2024-04-08T23:43:30.315Z,12.78
2024-04-08T23:46:01.420Z,12.66
2024-04-08T23:48:30.618Z,13.22
2024-04-08T23:51:03.906Z,12.68
2024-04-08T23:53:31.008Z,12.88
2024-04-08T23:56:01.299Z,12.93
2024-04-08T23:58:28.530Z,12.86
